sensor_id;sensor_type;location;lat;lon;timestamp;P1;durP1;ratioP1;P2;durP2;ratioP2
15697;SDS011;7949;48.726;9.102;2023-09-19T00:00:31;1.45;;;0.60;;
15697;SDS011;7949;48.726;9.102;2023-09-19T00:02:59;2.40;;;0.65;;
15697;SDS011;7949;48.726;9.102;2023-09-19T00:05:26;0.82;;;0.65;;
15697;SDS011;7949;48.726;9.102;2023-09-19T00:07:54;1.02;;;0.70;;
15697;SDS011;7949;48.726;9.102;2023-09-19T00:10:23;2.83;;;0.73;;
15697;SDS011;7949;48.726;9.102;2023-09-19T00:12:51;2.40;;;0.75;;
15697;SDS011;7949;48.726;9.102;2023-09-19T00:15:21;0.90;;;0.60;;
15697;SDS011;7949;48.726;9.102;2023-09-19T00:17:49;1.23;;;0.90;;
15697;SDS011;7949;48.726;9.102;2023-09-19T00:20:17;1.60;;;0.88;;
15697;SDS011;7949;48.726;9.102;2023-09-19T00:22:46;1.10;;;0.95;;
15697;SDS011;7949;48.726;9.102;2023-09-19T00:25:14;3.72;;;0.88;;
15697;SDS011;7949;48.726;9.102;2023-09-19T00:27:41;1.70;;;0.80;;
15697;SDS011;7949;48.726;9.102;2023-09-19T00:30:10;0.98;;;0.80;;
15697;SDS011;7949;48.726;9.102;2023-09-19T00:32:40;1.85;;;0.93;;
15697;SDS011;7949;48.726;9.102;2023-09-19T00:35:09;1.45;;;0.65;;
15697;SDS011;7949;48.726;9.102;2023-09-19T00:37:37;2.45;;;0.55;;
15697;SDS011;7949;48.726;9.102;2023-09-19T00:40:05;0.55;;;0.52;;
15697;SDS011;7949;48.726;9.102;2023-09-19T00:42:36;1.00;;;0.83;;
15697;SDS011;7949;48.726;9.102;2023-09-19T00:45:04;2.42;;;0.80;;
15697;SDS011;7949;48.726;9.102;2023-09-19T00:47:32;0.88;;;0.70;;
15697;SDS011;7949;48.726;9.102;2023-09-19T00:49:59;1.60;;;0.88;;
15697;SDS011;7949;48.726;9.102;2023-09-19T00:52:29;0.70;;;0.70;;
15697;SDS011;7949;48.726;9.102;2023-09-19T00:54:58;1.35;;;0.70;;
15697;SDS011;7949;48.726;9.102;2023-09-19T00:57:27;3.15;;;0.80;;
15697;SDS011;7949;48.726;9.102;2023-09-19T00:59:58;0.82;;;0.60;;
15697;SDS011;7949;48.726;9.102;2023-09-19T01:02:25;2.58;;;0.82;;
15697;SDS011;7949;48.726;9.102;2023-09-19T01:04:53;2.53;;;0.80;;
15697;SDS011;7949;48.726;9.102;2023-09-19T01:07:21;3.80;;;0.75;;
15697;SDS011;7949;48.726;9.102;2023-09-19T01:09:49;1.25;;;0.75;;
15697;SDS011;7949;48.726;9.102;2023-09-19T01:12:20;1.25;;;0.80;;
15697;SDS011;7949;48.726;9.102;2023-09-19T01:14:50;1.75;;;0.50;;
15697;SDS011;7949;48.726;9.102;2023-09-19T01:17:24;0.60;;;0.50;;
15697;SDS011;7949;48.726;9.102;2023-09-19T01:22:46;2.63;;;0.88;;
15697;SDS011;7949;48.726;9.102;2023-09-19T01:25:28;2.88;;;0.85;;
15697;SDS011;7949;48.726;9.102;2023-09-19T01:30:44;2.40;;;0.60;;
15697;SDS011;7949;48.726;9.102;2023-09-19T01:33:15;0.63;;;0.32;;
15697;SDS011;7949;48.726;9.102;2023-09-19T01:35:44;1.13;;;0.60;;
15697;SDS011;7949;48.726;9.102;2023-09-19T01:38:12;1.58;;;0.65;;
15697;SDS011;7949;48.726;9.102;2023-09-19T01:40:40;2.03;;;0.68;;
15697;SDS011;7949;48.726;9.102;2023-09-19T01:43:09;1.25;;;0.50;;
15697;SDS011;7949;48.726;9.102;2023-09-19T01:45:44;1.70;;;0.70;;
15697;SDS011;7949;48.726;9.102;2023-09-19T01:48:17;2.05;;;0.50;;
15697;SDS011;7949;48.726;9.102;2023-09-19T01:50:48;0.80;;;0.55;;
15697;SDS011;7949;48.726;9.102;2023-09-19T01:53:19;1.70;;;0.63;;
15697;SDS011;7949;48.726;9.102;2023-09-19T01:55:48;1.73;;;0.70;;
15697;SDS011;7949;48.726;9.102;2023-09-19T01:58:18;0.77;;;0.55;;
15697;SDS011;7949;48.726;9.102;2023-09-19T02:00:47;2.28;;;0.70;;
15697;SDS011;7949;48.726;9.102;2023-09-19T02:03:18;1.35;;;0.80;;
15697;SDS011;7949;48.726;9.102;2023-09-19T02:05:48;1.20;;;0.55;;
15697;SDS011;7949;48.726;9.102;2023-09-19T02:08:16;0.70;;;0.60;;
15697;SDS011;7949;48.726;9.102;2023-09-19T02:10:44;0.63;;;0.50;;
15697;SDS011;7949;48.726;9.102;2023-09-19T02:13:14;1.38;;;0.52;;
15697;SDS011;7949;48.726;9.102;2023-09-19T02:15:43;0.60;;;0.50;;
15697;SDS011;7949;48.726;9.102;2023-09-19T02:18:10;0.73;;;0.60;;
15697;SDS011;7949;48.726;9.102;2023-09-19T02:20:39;0.82;;;0.60;;
15697;SDS011;7949;48.726;9.102;2023-09-19T02:23:06;1.65;;;0.68;;
15697;SDS011;7949;48.726;9.102;2023-09-19T02:25:34;1.75;;;0.70;;
15697;SDS011;7949;48.726;9.102;2023-09-19T02:28:03;1.63;;;0.50;;
15697;SDS011;7949;48.726;9.102;2023-09-19T02:30:30;1.23;;;0.60;;
15697;SDS011;7949;48.726;9.102;2023-09-19T02:32:58;3.53;;;0.50;;
15697;SDS011;7949;48.726;9.102;2023-09-19T02:35:26;1.48;;;0.63;;
15697;SDS011;7949;48.726;9.102;2023-09-19T02:37:55;3.60;;;0.68;;
15697;SDS011;7949;48.726;9.102;2023-09-19T02:40:22;2.25;;;0.73;;
15697;SDS011;7949;48.726;9.102;2023-09-19T02:42:52;1.55;;;0.63;;
15697;SDS011;7949;48.726;9.102;2023-09-19T02:45:20;1.58;;;0.77;;
15697;SDS011;7949;48.726;9.102;2023-09-19T02:47:47;0.65;;;0.50;;
15697;SDS011;7949;48.726;9.102;2023-09-19T02:50:15;2.10;;;0.88;;
15697;SDS011;7949;48.726;9.102;2023-09-19T02:52:43;2.13;;;0.60;;
15697;SDS011;7949;48.726;9.102;2023-09-19T02:55:14;1.33;;;0.90;;
15697;SDS011;7949;48.726;9.102;2023-09-19T02:57:45;2.72;;;0.70;;
15697;SDS011;7949;48.726;9.102;2023-09-19T03:00:12;1.55;;;0.70;;
15697;SDS011;7949;48.726;9.102;2023-09-19T03:02:40;1.33;;;0.80;;
15697;SDS011;7949;48.726;9.102;2023-09-19T03:05:11;1.30;;;0.80;;
15697;SDS011;7949;48.726;9.102;2023-09-19T03:07:38;1.98;;;0.70;;
15697;SDS011;7949;48.726;9.102;2023-09-19T03:10:08;2.85;;;1.00;;
15697;SDS011;7949;48.726;9.102;2023-09-19T03:12:37;6.03;;;1.08;;
15697;SDS011;7949;48.726;9.102;2023-09-19T03:15:05;1.80;;;1.00;;
15697;SDS011;7949;48.726;9.102;2023-09-19T03:17:33;1.33;;;0.88;;
15697;SDS011;7949;48.726;9.102;2023-09-19T03:20:01;0.80;;;0.80;;
15697;SDS011;7949;48.726;9.102;2023-09-19T03:22:29;1.77;;;0.93;;
15697;SDS011;7949;48.726;9.102;2023-09-19T03:24:58;1.65;;;0.80;;
15697;SDS011;7949;48.726;9.102;2023-09-19T03:27:25;4.03;;;1.23;;
15697;SDS011;7949;48.726;9.102;2023-09-19T03:29:54;0.80;;;0.70;;
15697;SDS011;7949;48.726;9.102;2023-09-19T03:32:21;3.05;;;1.10;;
15697;SDS011;7949;48.726;9.102;2023-09-19T03:34:49;2.38;;;0.93;;
15697;SDS011;7949;48.726;9.102;2023-09-19T03:37:16;1.17;;;0.60;;
15697;SDS011;7949;48.726;9.102;2023-09-19T03:39:43;1.23;;;0.80;;
15697;SDS011;7949;48.726;9.102;2023-09-19T03:42:10;2.22;;;0.70;;
15697;SDS011;7949;48.726;9.102;2023-09-19T03:44:37;1.27;;;0.90;;
15697;SDS011;7949;48.726;9.102;2023-09-19T03:47:06;2.15;;;1.00;;
15697;SDS011;7949;48.726;9.102;2023-09-19T03:49:33;1.55;;;0.95;;
15697;SDS011;7949;48.726;9.102;2023-09-19T03:52:02;1.70;;;0.80;;
15697;SDS011;7949;48.726;9.102;2023-09-19T03:54:30;1.30;;;1.05;;
15697;SDS011;7949;48.726;9.102;2023-09-19T03:56:57;4.47;;;0.63;;
15697;SDS011;7949;48.726;9.102;2023-09-19T03:59:24;1.38;;;0.60;;
15697;SDS011;7949;48.726;9.102;2023-09-19T04:01:52;1.30;;;1.00;;
15697;SDS011;7949;48.726;9.102;2023-09-19T04:04:23;1.17;;;0.70;;
15697;SDS011;7949;48.726;9.102;2023-09-19T04:06:51;1.98;;;1.00;;
15697;SDS011;7949;48.726;9.102;2023-09-19T04:09:18;2.28;;;1.00;;
15697;SDS011;7949;48.726;9.102;2023-09-19T04:11:45;1.67;;;1.23;;
15697;SDS011;7949;48.726;9.102;2023-09-19T04:14:12;1.27;;;0.90;;
15697;SDS011;7949;48.726;9.102;2023-09-19T04:16:40;1.80;;;1.00;;
15697;SDS011;7949;48.726;9.102;2023-09-19T04:19:07;2.00;;;1.17;;
15697;SDS011;7949;48.726;9.102;2023-09-19T04:21:35;2.38;;;0.70;;
15697;SDS011;7949;48.726;9.102;2023-09-19T04:24:03;1.38;;;0.90;;
15697;SDS011;7949;48.726;9.102;2023-09-19T04:26:30;2.83;;;1.10;;
15697;SDS011;7949;48.726;9.102;2023-09-19T04:28:58;2.45;;;1.08;;
15697;SDS011;7949;48.726;9.102;2023-09-19T04:31:26;3.22;;;0.80;;
15697;SDS011;7949;48.726;9.102;2023-09-19T04:33:53;2.25;;;1.25;;
15697;SDS011;7949;48.726;9.102;2023-09-19T04:36:20;2.17;;;0.80;;
15697;SDS011;7949;48.726;9.102;2023-09-19T04:38:49;0.95;;;0.80;;
15697;SDS011;7949;48.726;9.102;2023-09-19T04:41:16;0.95;;;0.70;;
15697;SDS011;7949;48.726;9.102;2023-09-19T04:43:43;1.55;;;0.60;;
15697;SDS011;7949;48.726;9.102;2023-09-19T04:46:10;2.03;;;0.95;;
15697;SDS011;7949;48.726;9.102;2023-09-19T04:48:39;0.57;;;0.57;;
15697;SDS011;7949;48.726;9.102;2023-09-19T04:51:06;1.17;;;0.77;;
15697;SDS011;7949;48.726;9.102;2023-09-19T04:53:33;1.50;;;0.75;;
15697;SDS011;7949;48.726;9.102;2023-09-19T04:56:02;2.28;;;0.82;;
15697;SDS011;7949;48.726;9.102;2023-09-19T04:58:31;2.30;;;0.80;;
15697;SDS011;7949;48.726;9.102;2023-09-19T05:00:59;2.83;;;1.08;;
15697;SDS011;7949;48.726;9.102;2023-09-19T05:03:28;2.20;;;0.93;;
15697;SDS011;7949;48.726;9.102;2023-09-19T05:05:55;1.20;;;0.70;;
15697;SDS011;7949;48.726;9.102;2023-09-19T05:08:22;2.58;;;1.00;;
15697;SDS011;7949;48.726;9.102;2023-09-19T05:10:50;2.50;;;0.90;;
15697;SDS011;7949;48.726;9.102;2023-09-19T05:13:19;2.03;;;1.00;;
15697;SDS011;7949;48.726;9.102;2023-09-19T05:15:46;2.67;;;1.00;;
15697;SDS011;7949;48.726;9.102;2023-09-19T05:18:13;1.60;;;0.90;;
15697;SDS011;7949;48.726;9.102;2023-09-19T05:20:40;4.32;;;0.90;;
15697;SDS011;7949;48.726;9.102;2023-09-19T05:23:08;6.47;;;1.08;;
15697;SDS011;7949;48.726;9.102;2023-09-19T05:25:37;4.82;;;0.90;;
15697;SDS011;7949;48.726;9.102;2023-09-19T05:28:05;3.72;;;1.10;;
15697;SDS011;7949;48.726;9.102;2023-09-19T05:30:34;3.15;;;1.08;;
15697;SDS011;7949;48.726;9.102;2023-09-19T05:33:03;2.03;;;1.10;;
15697;SDS011;7949;48.726;9.102;2023-09-19T05:51:43;1.45;;;1.20;;
15697;SDS011;7949;48.726;9.102;2023-09-19T05:54:12;2.35;;;1.38;;
15697;SDS011;7949;48.726;9.102;2023-09-19T05:56:40;4.65;;;1.30;;
15697;SDS011;7949;48.726;9.102;2023-09-19T05:59:07;2.33;;;1.27;;
15697;SDS011;7949;48.726;9.102;2023-09-19T06:01:34;3.65;;;1.60;;
15697;SDS011;7949;48.726;9.102;2023-09-19T06:04:01;2.45;;;1.15;;
15697;SDS011;7949;48.726;9.102;2023-09-19T06:06:29;4.40;;;1.10;;
15697;SDS011;7949;48.726;9.102;2023-09-19T06:09:00;1.98;;;1.00;;
15697;SDS011;7949;48.726;9.102;2023-09-19T17:20:10;1.98;;;0.63;;
15697;SDS011;7949;48.726;9.102;2023-09-19T17:22:38;2.55;;;0.73;;
15697;SDS011;7949;48.726;9.102;2023-09-19T17:25:05;1.13;;;0.70;;
15697;SDS011;7949;48.726;9.102;2023-09-19T17:27:33;0.85;;;0.73;;
15697;SDS011;7949;48.726;9.102;2023-09-19T17:30:00;3.17;;;0.90;;
15697;SDS011;7949;48.726;9.102;2023-09-19T17:32:27;1.90;;;1.00;;
15697;SDS011;7949;48.726;9.102;2023-09-19T17:34:54;2.58;;;1.02;;
15697;SDS011;7949;48.726;9.102;2023-09-19T17:37:26;0.70;;;0.60;;
15697;SDS011;7949;48.726;9.102;2023-09-19T17:39:56;2.95;;;1.13;;
15697;SDS011;7949;48.726;9.102;2023-09-19T17:42:27;1.42;;;0.80;;
15697;SDS011;7949;48.726;9.102;2023-09-19T17:44:54;2.85;;;1.05;;
15697;SDS011;7949;48.726;9.102;2023-09-19T17:47:22;1.25;;;0.80;;
15697;SDS011;7949;48.726;9.102;2023-09-19T17:49:49;4.93;;;1.27;;
15697;SDS011;7949;48.726;9.102;2023-09-19T17:52:17;2.95;;;1.20;;
15697;SDS011;7949;48.726;9.102;2023-09-19T17:54:48;1.67;;;1.10;;
15697;SDS011;7949;48.726;9.102;2023-09-19T17:57:16;2.22;;;1.00;;
15697;SDS011;7949;48.726;9.102;2023-09-19T17:59:52;3.03;;;0.80;;
15697;SDS011;7949;48.726;9.102;2023-09-19T18:02:22;2.10;;;1.08;;
15697;SDS011;7949;48.726;9.102;2023-09-19T18:04:49;2.97;;;1.33;;
15697;SDS011;7949;48.726;9.102;2023-09-19T18:07:16;1.80;;;1.00;;
15697;SDS011;7949;48.726;9.102;2023-09-19T18:09:43;3.03;;;1.20;;
15697;SDS011;7949;48.726;9.102;2023-09-19T18:12:13;1.52;;;0.90;;
15697;SDS011;7949;48.726;9.102;2023-09-19T18:14:41;3.78;;;1.25;;
15697;SDS011;7949;48.726;9.102;2023-09-19T18:17:08;2.55;;;1.20;;
15697;SDS011;7949;48.726;9.102;2023-09-19T18:19:35;2.38;;;1.40;;
15697;SDS011;7949;48.726;9.102;2023-09-19T18:22:03;1.33;;;0.80;;
15697;SDS011;7949;48.726;9.102;2023-09-19T18:24:30;1.27;;;0.90;;
15697;SDS011;7949;48.726;9.102;2023-09-19T18:26:57;1.50;;;1.00;;
15697;SDS011;7949;48.726;9.102;2023-09-19T18:29:27;2.05;;;1.13;;
15697;SDS011;7949;48.726;9.102;2023-09-19T18:31:54;4.10;;;1.20;;
15697;SDS011;7949;48.726;9.102;2023-09-19T18:34:23;1.10;;;1.00;;
15697;SDS011;7949;48.726;9.102;2023-09-19T18:36:50;1.65;;;0.80;;
15697;SDS011;7949;48.726;9.102;2023-09-19T18:39:18;2.20;;;1.40;;
15697;SDS011;7949;48.726;9.102;2023-09-19T18:41:45;3.72;;;1.10;;
15697;SDS011;7949;48.726;9.102;2023-09-19T18:44:12;1.42;;;1.30;;
15697;SDS011;7949;48.726;9.102;2023-09-19T18:46:41;2.50;;;1.10;;
15697;SDS011;7949;48.726;9.102;2023-09-19T18:49:09;1.80;;;1.17;;
15697;SDS011;7949;48.726;9.102;2023-09-19T18:51:39;1.48;;;1.08;;
15697;SDS011;7949;48.726;9.102;2023-09-19T18:54:07;2.47;;;1.25;;
15697;SDS011;7949;48.726;9.102;2023-09-19T18:56:38;1.30;;;0.90;;
15697;SDS011;7949;48.726;9.102;2023-09-19T18:59:06;2.20;;;1.27;;
15697;SDS011;7949;48.726;9.102;2023-09-19T19:01:35;1.70;;;1.05;;
15697;SDS011;7949;48.726;9.102;2023-09-19T19:04:03;2.72;;;1.10;;
15697;SDS011;7949;48.726;9.102;2023-09-19T19:06:31;2.22;;;1.55;;
15697;SDS011;7949;48.726;9.102;2023-09-19T19:08:58;2.00;;;1.48;;
15697;SDS011;7949;48.726;9.102;2023-09-19T19:11:25;2.50;;;1.48;;
15697;SDS011;7949;48.726;9.102;2023-09-19T19:13:55;4.68;;;1.27;;
15697;SDS011;7949;48.726;9.102;2023-09-19T19:16:22;4.40;;;1.17;;
15697;SDS011;7949;48.726;9.102;2023-09-19T19:18:51;4.35;;;1.55;;
15697;SDS011;7949;48.726;9.102;2023-09-19T19:21:20;2.08;;;1.30;;
15697;SDS011;7949;48.726;9.102;2023-09-19T19:23:48;3.03;;;1.23;;
15697;SDS011;7949;48.726;9.102;2023-09-19T19:26:15;3.17;;;1.60;;
15697;SDS011;7949;48.726;9.102;2023-09-19T19:28:43;3.17;;;1.20;;
15697;SDS011;7949;48.726;9.102;2023-09-19T19:31:11;2.15;;;1.50;;
15697;SDS011;7949;48.726;9.102;2023-09-19T19:33:39;3.63;;;1.25;;
15697;SDS011;7949;48.726;9.102;2023-09-19T19:36:06;3.28;;;1.35;;
15697;SDS011;7949;48.726;9.102;2023-09-19T19:38:36;2.47;;;1.60;;
15697;SDS011;7949;48.726;9.102;2023-09-19T19:41:03;3.15;;;1.95;;
15697;SDS011;7949;48.726;9.102;2023-09-19T19:43:32;2.65;;;1.50;;
15697;SDS011;7949;48.726;9.102;2023-09-19T19:46:00;3.10;;;1.23;;
15697;SDS011;7949;48.726;9.102;2023-09-19T19:48:28;1.73;;;1.00;;
15697;SDS011;7949;48.726;9.102;2023-09-19T19:50:55;1.80;;;1.30;;
15697;SDS011;7949;48.726;9.102;2023-09-19T19:53:24;3.67;;;1.63;;
15697;SDS011;7949;48.726;9.102;2023-09-19T19:55:52;2.15;;;1.40;;
15697;SDS011;7949;48.726;9.102;2023-09-19T19:58:19;8.07;;;1.55;;
15697;SDS011;7949;48.726;9.102;2023-09-19T20:00:47;2.35;;;1.40;;
15697;SDS011;7949;48.726;9.102;2023-09-19T20:03:14;4.40;;;2.00;;
15697;SDS011;7949;48.726;9.102;2023-09-19T20:05:42;2.80;;;1.40;;
15697;SDS011;7949;48.726;9.102;2023-09-19T20:08:09;1.77;;;1.30;;
15697;SDS011;7949;48.726;9.102;2023-09-19T20:10:38;3.00;;;1.55;;
15697;SDS011;7949;48.726;9.102;2023-09-19T20:13:06;4.20;;;1.52;;
15697;SDS011;7949;48.726;9.102;2023-09-19T20:15:35;1.67;;;1.23;;
15697;SDS011;7949;48.726;9.102;2023-09-19T20:18:04;2.33;;;1.50;;
15697;SDS011;7949;48.726;9.102;2023-09-19T20:20:33;3.05;;;1.70;;
15697;SDS011;7949;48.726;9.102;2023-09-19T20:23:01;2.92;;;1.70;;
15697;SDS011;7949;48.726;9.102;2023-09-19T20:25:33;2.70;;;1.30;;
15697;SDS011;7949;48.726;9.102;2023-09-19T20:28:01;3.13;;;1.50;;
15697;SDS011;7949;48.726;9.102;2023-09-19T20:30:29;4.50;;;2.53;;
15697;SDS011;7949;48.726;9.102;2023-09-19T20:32:57;2.90;;;1.35;;
15697;SDS011;7949;48.726;9.102;2023-09-19T20:35:26;3.35;;;1.70;;
15697;SDS011;7949;48.726;9.102;2023-09-19T20:37:53;3.22;;;1.60;;
15697;SDS011;7949;48.726;9.102;2023-09-19T20:40:25;2.38;;;1.60;;
15697;SDS011;7949;48.726;9.102;2023-09-19T20:42:53;4.20;;;1.90;;
15697;SDS011;7949;48.726;9.102;2023-09-19T20:45:20;5.70;;;1.83;;
15697;SDS011;7949;48.726;9.102;2023-09-19T20:47:49;3.03;;;1.60;;
15697;SDS011;7949;48.726;9.102;2023-09-19T20:50:17;2.70;;;1.85;;
15697;SDS011;7949;48.726;9.102;2023-09-19T20:52:45;2.13;;;1.50;;
15697;SDS011;7949;48.726;9.102;2023-09-19T20:55:12;4.18;;;1.70;;
15697;SDS011;7949;48.726;9.102;2023-09-19T20:57:40;2.92;;;1.60;;
15697;SDS011;7949;48.726;9.102;2023-09-19T21:00:07;1.65;;;1.33;;
15697;SDS011;7949;48.726;9.102;2023-09-19T21:02:36;3.65;;;1.60;;
15697;SDS011;7949;48.726;9.102;2023-09-19T21:05:05;2.00;;;1.42;;
15697;SDS011;7949;48.726;9.102;2023-09-19T21:07:32;1.75;;;1.40;;
15697;SDS011;7949;48.726;9.102;2023-09-19T21:10:00;1.98;;;1.30;;
15697;SDS011;7949;48.726;9.102;2023-09-19T21:12:29;2.50;;;1.63;;
15697;SDS011;7949;48.726;9.102;2023-09-19T21:14:58;1.80;;;1.30;;
15697;SDS011;7949;48.726;9.102;2023-09-19T21:17:26;3.38;;;1.35;;
15697;SDS011;7949;48.726;9.102;2023-09-19T21:19:54;7.32;;;1.60;;
15697;SDS011;7949;48.726;9.102;2023-09-19T21:22:22;4.85;;;1.42;;
15697;SDS011;7949;48.726;9.102;2023-09-19T21:24:51;3.25;;;1.88;;
15697;SDS011;7949;48.726;9.102;2023-09-19T21:27:19;2.63;;;1.70;;
15697;SDS011;7949;48.726;9.102;2023-09-19T21:29:47;2.95;;;2.13;;
15697;SDS011;7949;48.726;9.102;2023-09-19T21:32:14;2.75;;;1.65;;
15697;SDS011;7949;48.726;9.102;2023-09-19T21:34:43;5.00;;;1.70;;
15697;SDS011;7949;48.726;9.102;2023-09-19T21:37:10;3.30;;;1.67;;
15697;SDS011;7949;48.726;9.102;2023-09-19T21:39:41;2.55;;;1.65;;
15697;SDS011;7949;48.726;9.102;2023-09-19T21:42:08;3.33;;;1.48;;
15697;SDS011;7949;48.726;9.102;2023-09-19T21:44:35;2.55;;;1.40;;
15697;SDS011;7949;48.726;9.102;2023-09-19T21:47:03;3.67;;;1.52;;
15697;SDS011;7949;48.726;9.102;2023-09-19T21:49:30;1.52;;;1.20;;
15697;SDS011;7949;48.726;9.102;2023-09-19T21:51:57;3.08;;;1.90;;
15697;SDS011;7949;48.726;9.102;2023-09-19T21:54:24;3.60;;;1.63;;
15697;SDS011;7949;48.726;9.102;2023-09-19T21:56:53;5.65;;;1.42;;
15697;SDS011;7949;48.726;9.102;2023-09-19T21:59:20;4.85;;;1.58;;
15697;SDS011;7949;48.726;9.102;2023-09-19T22:01:48;4.25;;;1.30;;
15697;SDS011;7949;48.726;9.102;2023-09-19T22:04:15;2.72;;;1.77;;
15697;SDS011;7949;48.726;9.102;2023-09-19T22:06:42;2.60;;;1.33;;
15697;SDS011;7949;48.726;9.102;2023-09-19T22:09:09;3.83;;;1.52;;
15697;SDS011;7949;48.726;9.102;2023-09-19T22:11:36;3.35;;;1.33;;
15697;SDS011;7949;48.726;9.102;2023-09-19T22:14:06;3.42;;;1.42;;
15697;SDS011;7949;48.726;9.102;2023-09-19T22:16:33;1.70;;;1.38;;
15697;SDS011;7949;48.726;9.102;2023-09-19T22:19:00;4.40;;;1.60;;
15697;SDS011;7949;48.726;9.102;2023-09-19T22:21:28;4.18;;;1.60;;
15697;SDS011;7949;48.726;9.102;2023-09-19T22:24:02;3.97;;;1.42;;
15697;SDS011;7949;48.726;9.102;2023-09-19T22:26:31;2.33;;;1.40;;
15697;SDS011;7949;48.726;9.102;2023-09-19T22:29:03;2.95;;;1.65;;
15697;SDS011;7949;48.726;9.102;2023-09-19T22:31:32;2.65;;;1.52;;
15697;SDS011;7949;48.726;9.102;2023-09-19T22:34:01;3.28;;;1.55;;
15697;SDS011;7949;48.726;9.102;2023-09-19T22:36:31;3.83;;;1.60;;
15697;SDS011;7949;48.726;9.102;2023-09-19T22:39:03;2.10;;;1.40;;
15697;SDS011;7949;48.726;9.102;2023-09-19T22:41:37;2.80;;;1.23;;
15697;SDS011;7949;48.726;9.102;2023-09-19T22:44:05;3.22;;;1.80;;
15697;SDS011;7949;48.726;9.102;2023-09-19T22:46:34;5.60;;;1.40;;
15697;SDS011;7949;48.726;9.102;2023-09-19T22:49:01;3.72;;;1.70;;
15697;SDS011;7949;48.726;9.102;2023-09-19T22:51:29;2.25;;;1.30;;
15697;SDS011;7949;48.726;9.102;2023-09-19T22:54:06;2.03;;;1.45;;
15697;SDS011;7949;48.726;9.102;2023-09-19T22:56:36;1.65;;;1.10;;
15697;SDS011;7949;48.726;9.102;2023-09-19T22:59:03;4.60;;;1.45;;
15697;SDS011;7949;48.726;9.102;2023-09-19T23:01:31;2.40;;;1.40;;
15697;SDS011;7949;48.726;9.102;2023-09-19T23:04:03;1.88;;;1.27;;
15697;SDS011;7949;48.726;9.102;2023-09-19T23:06:39;2.10;;;1.30;;
15697;SDS011;7949;48.726;9.102;2023-09-19T23:09:08;2.28;;;1.55;;
15697;SDS011;7949;48.726;9.102;2023-09-19T23:11:46;2.70;;;1.60;;
15697;SDS011;7949;48.726;9.102;2023-09-19T23:14:14;4.47;;;1.58;;
15697;SDS011;7949;48.726;9.102;2023-09-19T23:16:42;2.75;;;1.40;;
15697;SDS011;7949;48.726;9.102;2023-09-19T23:19:22;2.75;;;1.50;;
15697;SDS011;7949;48.726;9.102;2023-09-19T23:21:54;1.75;;;1.20;;
15697;SDS011;7949;48.726;9.102;2023-09-19T23:24:28;2.60;;;1.40;;
15697;SDS011;7949;48.726;9.102;2023-09-19T23:26:58;4.13;;;1.35;;
15697;SDS011;7949;48.726;9.102;2023-09-19T23:29:31;5.45;;;1.60;;
15697;SDS011;7949;48.726;9.102;2023-09-19T23:31:59;2.20;;;1.35;;
15697;SDS011;7949;48.726;9.102;2023-09-19T23:34:28;1.50;;;1.27;;
15697;SDS011;7949;48.726;9.102;2023-09-19T23:36:58;2.60;;;1.30;;
15697;SDS011;7949;48.726;9.102;2023-09-19T23:39:25;2.58;;;1.15;;
15697;SDS011;7949;48.726;9.102;2023-09-19T23:41:52;3.38;;;1.55;;
15697;SDS011;7949;48.726;9.102;2023-09-19T23:44:21;1.95;;;1.30;;
15697;SDS011;7949;48.726;9.102;2023-09-19T23:46:49;2.58;;;1.60;;
15697;SDS011;7949;48.726;9.102;2023-09-19T23:49:20;2.38;;;1.70;;
15697;SDS011;7949;48.726;9.102;2023-09-19T23:51:49;2.85;;;1.27;;
15697;SDS011;7949;48.726;9.102;2023-09-19T23:54:17;2.45;;;1.80;;
15697;SDS011;7949;48.726;9.102;2023-09-19T23:56:50;4.43;;;1.92;;
15697;SDS011;7949;48.726;9.102;2023-09-19T23:59:18;6.57;;;1.20;;
